Time;durP1;ratioP1;P1;durP2;ratioP2;P2;SDS_P1;SDS_P2;PMS_P1;PMS_P2;Temp;Humidity;BMP_temperature;BMP_pressure;BME280_temperature;BME280_humidity;BME280_pressure;Samples;Min_cycle;Max_cycle;Signal;HPM_P1;HPM_P2
2021/06/16 00:02:21;;;;;;;8.02;1.88;;;;;;;19.40;44.50;100099.72;5083214;28;20136;-84
2021/06/16 00:04:49;;;;;;;8.07;2.22;;;;;;;19.33;44.42;100099.41;5071357;28;20055;-84
2021/06/16 00:07:16;;;;;;;7.70;1.92;;;;;;;19.27;44.60;100098.16;5071633;28;20128;-84
2021/06/16 00:09:43;;;;;;;6.13;2.40;;;;;;;19.21;44.68;100097.84;5071763;28;20385;-84
2021/06/16 00:12:10;;;;;;;8.80;1.58;;;;;;;19.14;44.81;100097.53;5071563;28;20048;-83
2021/06/16 00:14:38;;;;;;;3.45;1.73;;;;;;;19.05;44.90;100096.50;5087396;28;20051;-84
2021/06/16 00:17:05;;;;;;;6.40;1.95;;;;;;;18.98;45.29;100092.66;5091725;28;20109;-84
2021/06/16 00:19:52;;;;;;;5.22;2.42;;;;;;;18.86;44.90;100095.44;5091784;28;20058;-84
2021/06/16 00:22:18;;;;;;;5.60;1.88;;;;;;;18.83;45.32;100085.00;5083802;28;20074;-84
2021/06/16 00:24:52;;;;;;;5.13;1.92;;;;;;;18.74;45.73;100085.81;5071158;28;20051;-84
2021/06/16 00:27:19;;;;;;;8.25;2.00;;;;;;;18.70;45.47;100079.91;5071411;28;20056;-84
2021/06/16 00:29:46;;;;;;;7.40;2.17;;;;;;;18.66;45.75;100077.63;5071245;28;20126;-84
2021/06/16 00:32:12;;;;;;;8.45;2.25;;;;;;;18.61;45.96;100075.34;5077571;28;20058;-83
2021/06/16 00:34:39;;;;;;;5.20;1.83;;;;;;;18.59;46.15;100080.84;5091204;28;20051;-84
2021/06/16 00:37:06;;;;;;;8.40;2.25;;;;;;;18.57;46.10;100069.44;5091601;28;20578;-84
2021/06/16 00:39:34;;;;;;;6.35;1.92;;;;;;;18.55;46.18;100070.56;5091380;28;20060;-84
2021/06/16 00:42:01;;;;;;;6.90;1.90;;;;;;;18.53;45.98;100070.69;5086148;28;20057;-84
2021/06/16 00:44:27;;;;;;;8.15;2.72;;;;;;;18.49;46.22;100078.13;5072114;28;20048;-84
2021/06/16 00:46:58;;;;;;;5.90;2.30;;;;;;;18.45;47.09;100075.81;5074538;28;20056;-83
2021/06/16 00:49:25;;;;;;;8.25;1.85;;;;;;;18.45;46.13;100067.84;5074859;28;20060;-84
2021/06/16 00:51:51;;;;;;;5.90;2.00;;;;;;;18.40;46.46;100057.59;5077837;28;20052;-84
2021/06/16 00:54:18;;;;;;;7.78;2.13;;;;;;;18.37;46.56;100063.16;5094742;28;20044;-84
2021/06/16 00:56:45;;;;;;;6.13;2.00;;;;;;;18.35;46.87;100063.28;5095166;28;20741;-84
2021/06/16 00:59:16;;;;;;;5.43;2.03;;;;;;;18.31;47.59;100064.53;5095001;28;20414;-84
2021/06/16 01:01:50;;;;;;;5.18;2.20;;;;;;;18.30;47.29;100062.84;5092873;28;20051;-84
2021/06/16 01:04:23;;;;;;;6.10;1.80;;;;;;;18.28;47.62;100066.63;4997164;28;20050;-84
2021/06/16 01:07:06;;;;;;;8.40;2.23;;;;;;;18.25;47.29;100061.53;4997542;28;20141;-84
2021/06/16 01:09:37;;;;;;;8.38;2.53;;;;;;;18.26;47.64;100064.09;4997431;28;20309;-84
2021/06/16 01:12:26;;;;;;;6.45;1.90;;;;;;;18.20;47.48;100060.09;4997550;28;20050;-84
2021/06/16 01:15:25;;;;;;;7.38;2.10;;;;;;;18.19;47.48;100065.56;4996963;28;20469;-84
2021/06/16 01:18:05;;;;;;;6.70;2.05;;;;;;;18.18;47.72;100069.22;5010370;28;20089;-84
2021/06/16 01:20:43;;;;;;;5.53;1.92;;;;;;;18.15;47.90;100059.66;5013684;28;20062;-89
2021/06/16 01:23:50;;;;;;;6.45;1.83;;;;;;;18.13;47.62;100058.09;5071471;28;20054;-89
2021/06/16 01:26:29;;;;;;;8.88;2.17;;;;;;;18.12;47.85;100059.09;5094786;28;20431;-89
2021/06/16 01:32:27;;;;;;;5.95;2.17;;;;;;;18.06;47.92;100058.56;5095009;28;20233;-89
2021/06/16 01:34:54;;;;;;;5.63;1.80;;;;;;;18.10;47.55;100056.53;5093750;28;20044;-89
2021/06/16 01:37:21;;;;;;;4.05;1.75;;;;;;;18.07;47.99;100057.63;5095429;28;20052;-89
2021/06/16 01:40:12;;;;;;;5.82;1.88;;;;;;;18.01;48.21;100058.13;5094259;28;20052;-89
2021/06/16 01:42:41;;;;;;;5.03;1.83;;;;;;;18.03;48.34;100050.88;5085463;28;20396;-89
2021/06/16 01:45:08;;;;;;;8.00;1.95;;;;;;;18.03;48.12;100055.31;5073738;28;20051;-89
2021/06/16 01:48:06;;;;;;;6.38;1.65;;;;;;;17.98;48.21;100053.03;5073860;28;20165;-89
2021/06/16 01:50:34;;;;;;;8.27;2.08;;;;;;;18.00;48.35;100052.91;5073607;28;20045;-89
2021/06/16 01:53:02;;;;;;;6.07;2.10;;;;;;;17.97;48.47;100052.22;5073666;28;20048;-89
2021/06/16 01:55:51;;;;;;;7.07;1.95;;;;;;;17.91;48.64;100047.38;5073829;28;20055;-89
2021/06/16 01:58:23;;;;;;;6.40;1.70;;;;;;;17.92;49.00;100048.25;5073017;28;20052;-89
2021/06/16 02:00:53;;;;;;;5.53;2.10;;;;;;;17.91;49.06;100051.88;5073498;28;20052;-89
2021/06/16 02:03:21;;;;;;;4.63;1.85;;;;;;;17.89;49.00;100051.16;5074251;28;20057;-89
2021/06/16 02:05:48;;;;;;;5.78;2.20;;;;;;;17.86;48.59;100048.75;5073278;28;20051;-89
2021/06/16 02:08:25;;;;;;;5.93;1.92;;;;;;;17.80;49.41;100044.78;5073641;28;20136;-89
2021/06/16 02:10:53;;;;;;;9.63;2.00;;;;;;;17.81;49.06;100050.00;5073311;28;20066;-89
2021/06/16 02:13:45;;;;;;;5.82;1.77;;;;;;;17.74;49.22;100043.47;5086814;28;20051;-89
2021/06/16 02:16:14;;;;;;;7.70;2.83;;;;;;;17.78;49.03;100052.91;5093425;28;20062;-89
2021/06/16 02:18:45;;;;;;;6.40;2.08;;;;;;;17.74;49.70;100043.47;5093937;28;20502;-89
2021/06/16 02:21:14;;;;;;;5.28;2.00;;;;;;;17.74;49.33;100039.97;5093698;28;20146;-89
2021/06/16 02:23:42;;;;;;;6.35;1.98;;;;;;;17.73;49.08;100039.13;5077078;28;20074;-89
2021/06/16 02:26:11;;;;;;;4.78;1.83;;;;;;;17.70;49.64;100040.22;5073279;28;20476;-84
2021/06/16 02:28:42;;;;;;;7.60;2.20;;;;;;;17.66;49.54;100038.78;5072800;28;20059;-84
2021/06/16 02:31:09;;;;;;;5.55;1.90;;;;;;;17.65;49.32;100045.06;5073046;28;20062;-84
2021/06/16 02:33:36;;;;;;;10.07;2.45;;;;;;;17.63;49.29;100039.03;5088897;28;20052;-83
2021/06/16 02:36:04;;;;;;;7.35;2.47;;;;;;;17.60;49.60;100035.78;5092606;28;20055;-84
2021/06/16 02:38:35;;;;;;;4.50;1.80;;;;;;;17.56;50.17;100038.69;5092978;28;20055;-83
2021/06/16 02:41:08;;;;;;;7.35;2.10;;;;;;;17.53;50.26;100030.97;5093133;28;20075;-84
2021/06/16 02:43:36;;;;;;;5.70;1.92;;;;;;;17.52;49.58;100026.63;5077620;28;20062;-83
2021/06/16 02:46:06;;;;;;;5.30;2.10;;;;;;;17.50;50.05;100028.56;5072640;28;20400;-84
2021/06/16 02:48:34;;;;;;;4.45;1.85;;;;;;;17.49;49.97;100031.34;5072592;28;20055;-84
2021/06/16 02:51:02;;;;;;;6.28;2.17;;;;;;;17.47;49.95;100026.16;5073591;28;20419;-84
2021/06/16 02:53:34;;;;;;;5.95;1.90;;;;;;;17.42;50.29;100015.03;5088867;28;20135;-84
2021/06/16 02:56:03;;;;;;;7.47;1.90;;;;;;;17.43;50.18;100022.06;5072282;28;20396;-84
2021/06/16 02:58:35;;;;;;;6.85;2.22;;;;;;;17.39;50.37;100031.25;5072410;28;20075;-84
2021/06/16 03:01:04;;;;;;;6.10;2.22;;;;;;;17.38;50.13;100022.41;5072251;28;20056;-84
2021/06/16 03:03:32;;;;;;;4.65;1.60;;;;;;;17.37;50.31;100025.19;5092653;28;20048;-83
2021/06/16 03:06:00;;;;;;;5.53;2.00;;;;;;;17.36;50.37;100021.72;5092561;28;20048;-84
2021/06/16 03:08:28;;;;;;;6.00;1.92;;;;;;;17.36;50.56;100026.16;5091692;28;20060;-84
2021/06/16 03:11:02;;;;;;;6.97;2.28;;;;;;;17.35;51.35;100013.84;5092111;28;20144;-84
2021/06/16 03:13:29;;;;;;;6.15;1.95;;;;;;;17.37;50.49;100023.41;5073361;28;20048;-84
2021/06/16 03:15:57;;;;;;;5.38;1.70;;;;;;;17.39;50.75;100024.13;5071666;28;20048;-84
2021/06/16 03:18:27;;;;;;;5.72;2.00;;;;;;;17.39;50.95;100020.59;5071866;28;20052;-84
2021/06/16 03:20:59;;;;;;;4.28;1.67;;;;;;;17.41;51.22;100016.00;5071917;28;20094;-84
2021/06/16 03:23:27;;;;;;;7.10;2.30;;;;;;;17.44;50.66;100019.28;5090276;28;20688;-83
2021/06/16 03:26:04;;;;;;;8.40;1.90;;;;;;;17.44;50.97;100021.94;5092243;28;20133;-84
2021/06/16 03:28:32;;;;;;;5.90;1.85;;;;;;;17.50;50.82;100019.72;5093117;28;20051;-83
2021/06/16 03:31:01;;;;;;;6.65;1.80;;;;;;;17.53;50.56;100016.81;5093429;28;20480;-84
2021/06/16 03:33:29;;;;;;;5.63;1.95;;;;;;;17.53;50.74;100012.31;5074799;28;20048;-83
2021/06/16 03:35:58;;;;;;;6.07;2.08;;;;;;;17.56;50.81;100021.88;5071485;28;20056;-84
2021/06/16 03:38:25;;;;;;;7.00;1.90;;;;;;;17.56;50.77;100014.75;5071666;28;20063;-84
2021/06/16 03:40:53;;;;;;;3.95;1.85;;;;;;;17.58;50.66;100019.94;5071578;28;20061;-84
2021/06/16 03:43:22;;;;;;;7.53;2.03;;;;;;;17.60;50.75;100014.50;5088997;28;20411;-83
2021/06/16 03:45:49;;;;;;;5.53;1.92;;;;;;;17.62;50.89;100015.19;5091979;28;20476;-84
2021/06/16 03:48:19;;;;;;;3.45;1.75;;;;;;;17.63;50.92;100008.91;5092083;28;20481;-83
2021/06/16 03:50:49;;;;;;;10.38;1.83;;;;;;;17.66;50.89;100008.66;5092805;28;20058;-83
2021/06/16 03:53:18;;;;;;;5.30;1.90;;;;;;;17.66;51.13;100004.19;5082464;28;20046;-84
2021/06/16 03:55:49;;;;;;;6.75;1.70;;;;;;;17.66;51.18;100006.84;5092574;28;20058;-84
2021/06/16 03:58:18;;;;;;;5.30;1.92;;;;;;;17.68;50.99;100009.38;5092896;28;20056;-83
2021/06/16 04:00:45;;;;;;;7.32;2.30;;;;;;;17.68;50.78;100004.06;5091573;28;20059;-84
2021/06/16 04:03:13;;;;;;;7.68;1.75;;;;;;;17.68;51.03;100004.06;5076202;28;20053;-84
2021/06/16 04:05:41;;;;;;;9.15;2.42;;;;;;;17.67;51.01;99997.88;5071264;28;20045;-84
2021/06/16 04:08:10;;;;;;;5.28;1.83;;;;;;;17.67;51.58;100000.53;5071707;28;20052;-84
2021/06/16 04:10:44;;;;;;;8.35;2.15;;;;;;;17.66;51.81;99998.88;5078958;28;20051;-84
2021/06/16 04:13:11;;;;;;;8.05;2.10;;;;;;;17.67;51.14;100002.34;5091735;28;20048;-84
2021/06/16 04:15:38;;;;;;;6.60;1.90;;;;;;;17.66;51.48;99996.19;5091503;28;20392;-83
2021/06/16 04:18:07;;;;;;;5.07;1.83;;;;;;;17.66;52.08;99996.19;5091457;28;20048;-84
2021/06/16 04:20:34;;;;;;;6.43;2.05;;;;;;;17.67;51.78;99997.88;5085628;28;20446;-84
2021/06/16 04:23:05;;;;;;;6.22;2.25;;;;;;;17.68;52.48;99990.75;5075380;28;20485;-83
2021/06/16 04:25:32;;;;;;;6.28;2.22;;;;;;;17.71;51.75;99993.13;5075094;28;20423;-84
2021/06/16 04:27:59;;;;;;;5.30;2.15;;;;;;;17.74;51.80;99982.25;5075441;28;20052;-84
2021/06/16 04:30:26;;;;;;;5.40;2.05;;;;;;;17.78;52.09;99988.16;5081546;28;20058;-85
2021/06/16 04:32:54;;;;;;;7.47;1.83;;;;;;;17.80;51.88;99989.69;5095703;28;20059;-86
2021/06/16 04:35:22;;;;;;;6.40;2.60;;;;;;;17.84;52.01;99983.16;5095016;28;20059;-86
2021/06/16 04:37:49;;;;;;;11.15;1.88;;;;;;;17.91;51.83;99987.97;5095594;28;20051;-85
2021/06/16 04:40:16;;;;;;;8.57;1.88;;;;;;;17.97;51.91;99977.63;5090687;28;20051;-85
2021/06/16 04:42:46;;;;;;;8.82;1.85;;;;;;;18.04;52.31;99980.63;5074880;28;20064;-84
2021/06/16 04:45:14;;;;;;;7.93;2.45;;;;;;;18.12;51.95;99972.00;5075863;28;20056;-85
2021/06/16 04:47:40;;;;;;;4.47;1.77;;;;;;;18.20;51.80;99968.66;5074965;28;20054;-85
2021/06/16 04:50:09;;;;;;;7.28;2.13;;;;;;;18.27;51.66;99980.50;5077169;28;20507;-85
2021/06/16 04:52:43;;;;;;;5.95;1.90;;;;;;;18.32;51.83;99969.44;5096199;28;20056;-85
2021/06/16 04:55:12;;;;;;;4.90;1.80;;;;;;;18.42;52.01;99972.13;5094922;28;20048;-84
2021/06/16 04:57:39;;;;;;;5.63;1.92;;;;;;;18.49;51.38;99963.50;5095184;28;20063;-84
2021/06/16 05:00:08;;;;;;;5.60;1.65;;;;;;;18.56;51.48;99966.47;5094548;28;20048;-84
2021/06/16 05:02:36;;;;;;;6.22;2.03;;;;;;;18.64;51.29;99962.28;5094829;28;20456;-84
2021/06/16 05:05:05;;;;;;;7.05;2.20;;;;;;;18.69;51.26;99966.22;5094538;28;20070;-84
2021/06/16 05:07:31;;;;;;;6.10;1.75;;;;;;;18.75;51.07;99962.16;5096143;28;20051;-84
2021/06/16 05:09:58;;;;;;;6.35;2.13;;;;;;;18.81;50.83;99964.31;5093510;28;20058;-84
2021/06/16 05:12:36;;;;;;;4.15;1.95;;;;;;;18.84;51.14;99969.34;5074481;28;20049;-84
2021/06/16 05:15:05;;;;;;;7.28;1.90;;;;;;;18.94;50.60;99963.19;5074107;28;20125;-84
2021/06/16 05:17:33;;;;;;;4.88;1.80;;;;;;;18.97;50.58;99957.59;5074349;28;20062;-85
2021/06/16 05:20:00;;;;;;;6.65;2.17;;;;;;;19.02;50.63;99961.53;5075385;28;20097;-84
2021/06/16 05:22:28;;;;;;;9.25;2.28;;;;;;;19.07;50.60;99962.97;5094068;28;20067;-84
2021/06/16 05:24:55;;;;;;;4.32;1.58;;;;;;;19.10;50.56;99957.38;5094631;28;20063;-84
2021/06/16 05:27:22;;;;;;;7.45;1.95;;;;;;;19.14;50.70;99956.94;5094283;28;20054;-84
2021/06/16 05:29:51;;;;;;;5.45;2.10;;;;;;;19.18;50.53;99954.00;5094289;28;20048;-85
2021/06/16 05:32:17;;;;;;;4.97;1.67;;;;;;;19.23;50.36;99960.63;5092659;28;20082;-85
2021/06/16 05:34:44;;;;;;;3.72;1.83;;;;;;;19.27;50.82;99955.84;5093856;28;20044;-85
2021/06/16 05:37:20;;;;;;;7.97;2.08;;;;;;;19.29;50.76;99959.22;5094536;28;20048;-82
2021/06/16 05:39:47;;;;;;;7.63;1.92;;;;;;;19.37;50.64;99948.66;5093988;28;20054;-83
2021/06/16 05:42:14;;;;;;;3.90;1.55;;;;;;;19.44;50.72;99954.28;5074539;28;20087;-83
2021/06/16 05:44:45;;;;;;;6.05;2.03;;;;;;;19.49;50.87;99961.88;5073814;28;20135;-83
2021/06/16 05:47:11;;;;;;;10.07;2.20;;;;;;;19.56;50.81;99951.50;5073761;28;20055;-83
2021/06/16 05:49:38;;;;;;;7.28;2.00;;;;;;;19.62;50.33;99951.75;5073896;28;20052;-83
2021/06/16 05:52:05;;;;;;;5.93;2.08;;;;;;;19.69;50.47;99954.69;5093025;28;20058;-83
2021/06/16 05:54:32;;;;;;;5.30;1.98;;;;;;;19.74;50.69;99951.63;5093951;28;20058;-83
2021/06/16 05:56:59;;;;;;;13.52;2.17;;;;;;;19.82;50.72;99953.56;5093741;28;20060;-83
2021/06/16 05:59:25;;;;;;;12.80;2.20;;;;;;;19.89;50.94;99946.69;5093654;28;20050;-83
2021/06/16 06:01:52;;;;;;;7.43;2.10;;;;;;;19.96;50.75;99941.59;5093339;28;20052;-83
2021/06/16 06:04:20;;;;;;;7.57;2.35;;;;;;;20.02;50.63;99938.38;5093175;28;20060;-83
2021/06/16 06:06:47;;;;;;;5.15;2.28;;;;;;;20.11;50.60;99940.16;5093904;28;20052;-83
2021/06/16 06:09:13;;;;;;;5.40;2.03;;;;;;;20.19;50.47;99942.13;5093420;28;20047;-83
2021/06/16 06:11:40;;;;;;;5.10;2.05;;;;;;;20.27;50.74;99941.41;5079958;28;20052;-83
2021/06/16 06:14:07;;;;;;;5.75;2.38;;;;;;;20.34;50.55;99939.81;5073289;28;20397;-83
2021/06/16 06:16:34;;;;;;;5.97;2.28;;;;;;;20.41;50.78;99938.22;5072898;28;20053;-83
2021/06/16 06:19:02;;;;;;;7.15;2.13;;;;;;;20.50;50.38;99935.66;5073350;28;20396;-88
2021/06/16 06:21:32;;;;;;;6.50;2.17;;;;;;;20.55;50.59;99941.41;5084081;28;20052;-88
2021/06/16 06:24:05;;;;;;;8.80;2.17;;;;;;;20.58;50.77;99938.44;5093136;28;20060;-85
2021/06/16 06:26:33;;;;;;;6.05;2.05;;;;;;;20.67;50.30;99931.38;5093481;28;20150;-85
2021/06/16 06:29:01;;;;;;;7.18;2.25;;;;;;;20.71;50.62;99924.72;5093097;28;20051;-85
2021/06/16 06:31:29;;;;;;;5.72;2.22;;;;;;;20.77;50.65;99931.28;5082232;28;20082;-85
2021/06/16 06:33:55;;;;;;;8.52;2.30;;;;;;;20.83;50.70;99930.72;5072996;28;20471;-85
2021/06/16 06:36:25;;;;;;;5.13;2.25;;;;;;;20.87;50.79;99924.09;5072923;28;20485;-85
2021/06/16 06:38:52;;;;;;;7.32;2.35;;;;;;;20.92;50.57;99929.84;5072977;28;20493;-85
2021/06/16 06:41:19;;;;;;;4.32;2.35;;;;;;;21.00;50.77;99928.25;5075247;28;20070;-85
2021/06/16 06:43:50;;;;;;;9.27;2.17;;;;;;;21.03;50.62;99923.41;5072613;28;20488;-85
2021/06/16 06:46:17;;;;;;;4.57;2.13;;;;;;;21.11;50.42;99919.97;5072648;28;20416;-85
2021/06/16 06:48:44;;;;;;;5.68;2.30;;;;;;;21.19;50.55;99924.56;5072570;28;20401;-85
2021/06/16 06:51:11;;;;;;;4.43;1.83;;;;;;;21.25;50.46;99918.59;5078973;28;20062;-85
2021/06/16 06:53:37;;;;;;;7.07;2.20;;;;;;;21.32;50.49;99916.16;5072411;28;20064;-85
2021/06/16 06:56:04;;;;;;;6.70;2.38;;;;;;;21.40;50.35;99926.09;5073490;28;20488;-85
2021/06/16 06:58:34;;;;;;;10.90;2.47;;;;;;;21.47;50.33;99919.13;5072531;28;20071;-84
2021/06/16 07:01:01;;;;;;;6.78;2.08;;;;;;;21.56;50.53;99910.16;5072647;28;20416;-85
2021/06/16 07:03:28;;;;;;;5.07;2.17;;;;;;;21.64;50.04;99912.03;5090864;28;20063;-88
2021/06/16 07:05:58;;;;;;;8.10;2.47;;;;;;;21.71;50.18;99912.25;5092300;28;20058;-88
2021/06/16 07:08:25;;;;;;;4.82;1.85;;;;;;;21.81;50.21;99913.03;5093672;28;20060;-88
2021/06/16 07:11:05;;;;;;;5.82;2.08;;;;;;;21.88;50.22;99907.91;5092274;28;20044;-88
2021/06/16 07:13:32;;;;;;;4.15;1.88;;;;;;;21.99;49.93;99899.56;5072984;28;20052;-85
2021/06/16 07:16:07;;;;;;;13.13;2.15;;;;;;;22.08;50.12;99897.78;5043420;28;20140;-88
2021/06/16 07:18:36;;;;;;;5.80;2.15;;;;;;;22.18;50.43;99897.69;5034416;28;20100;-88
2021/06/16 07:21:04;;;;;;;6.47;2.03;;;;;;;22.28;49.85;99894.88;5034631;28;20140;-88
2021/06/16 07:23:31;;;;;;;4.20;1.67;;;;;;;22.37;50.13;99887.69;5015721;28;20540;-83
2021/06/16 07:25:59;;;;;;;4.85;2.17;;;;;;;22.46;49.59;99892.06;5014240;28;20251;-83
2021/06/16 07:28:26;;;;;;;3.78;1.77;;;;;;;22.57;49.39;99890.97;5014701;28;20124;-83
2021/06/16 07:31:02;;;;;;;6.07;2.05;;;;;;;22.64;49.68;99888.47;5014545;28;20049;-83
2021/06/16 07:33:29;;;;;;;7.78;2.03;;;;;;;22.76;49.50;99895.22;5039963;28;20083;-88
2021/06/16 07:35:55;;;;;;;3.58;1.83;;;;;;;22.85;49.73;99880.00;5091931;28;20044;-89
2021/06/16 07:38:23;;;;;;;5.10;1.77;;;;;;;22.95;49.53;99884.34;5092285;28;20052;-85
2021/06/16 07:40:50;;;;;;;6.25;2.45;;;;;;;23.06;49.37;99884.00;5091945;28;20052;-85
2021/06/16 07:43:18;;;;;;;3.97;2.08;;;;;;;23.15;49.03;99880.34;5075864;28;20055;-85
2021/06/16 07:45:45;;;;;;;6.70;2.15;;;;;;;23.25;48.92;99880.16;5071476;28;20052;-85
2021/06/16 07:48:12;;;;;;;7.28;1.80;;;;;;;23.34;48.20;99883.75;5071862;28;20158;-85
2021/06/16 07:50:42;;;;;;;4.18;1.80;;;;;;;23.41;48.21;99878.53;5078764;28;20039;-85
2021/06/16 07:53:09;;;;;;;5.10;1.65;;;;;;;23.52;47.79;99877.34;5091754;28;20056;-85
2021/06/16 07:55:38;;;;;;;5.43;1.85;;;;;;;23.61;48.36;99884.38;5091087;28;20502;-85
2021/06/16 07:58:06;;;;;;;4.90;1.63;;;;;;;23.69;47.81;99876.31;5091711;28;20052;-85
2021/06/16 08:00:35;;;;;;;5.85;2.47;;;;;;;23.78;47.12;99871.75;5085190;28;20052;-85
2021/06/16 08:03:02;;;;;;;7.43;1.80;;;;;;;23.87;47.01;99867.19;5071787;28;20052;-85
2021/06/16 08:05:29;;;;;;;5.57;2.17;;;;;;;23.95;47.23;99872.56;5071342;28;20088;-85
2021/06/16 08:07:56;;;;;;;11.38;2.20;;;;;;;24.05;47.00;99868.81;5071194;28;20055;-85
2021/06/16 08:10:31;;;;;;;3.58;1.58;;;;;;;24.14;47.07;99859.75;5077492;28;20086;-85
2021/06/16 08:12:58;;;;;;;7.22;2.50;;;;;;;24.26;46.79;99856.69;5091646;28;20137;-85
2021/06/16 08:15:25;;;;;;;6.35;1.85;;;;;;;24.36;46.72;99861.84;5091157;28;20086;-85
2021/06/16 08:17:52;;;;;;;2.75;1.65;;;;;;;24.47;47.18;99856.06;5071891;28;20135;-85
2021/06/16 08:20:19;;;;;;;5.88;1.92;;;;;;;24.55;46.29;99856.00;5085676;28;20059;-85
2021/06/16 08:22:46;;;;;;;3.55;1.85;;;;;;;24.64;46.70;99851.44;5072027;28;20051;-85
2021/06/16 08:25:15;;;;;;;5.20;1.65;;;;;;;24.72;45.81;99850.53;5091051;28;20060;-85
2021/06/16 08:27:42;;;;;;;5.32;1.98;;;;;;;24.82;45.78;99843.06;5092141;28;20048;-85
2021/06/16 08:30:12;;;;;;;7.53;2.05;;;;;;;24.91;45.04;99846.56;5090618;28;20051;-85
2021/06/16 08:32:41;;;;;;;7.85;2.22;;;;;;;25.00;44.86;99838.44;5071770;28;20048;-89
2021/06/16 08:35:25;;;;;;;6.07;1.60;;;;;;;25.03;44.44;99840.75;5071807;28;20415;-89
2021/06/16 08:37:52;;;;;;;6.68;2.15;;;;;;;25.15;44.71;99836.59;5071732;28;20048;-83
2021/06/16 08:40:19;;;;;;;4.97;1.92;;;;;;;25.22;44.65;99836.72;5074005;28;20554;-83
2021/06/16 08:42:50;;;;;;;5.97;1.67;;;;;;;25.28;44.96;99830.63;5092226;28;20407;-83
2021/06/16 08:45:19;;;;;;;6.03;1.95;;;;;;;25.36;44.79;99830.53;5092033;28;20389;-83
2021/06/16 08:47:47;;;;;;;5.95;2.08;;;;;;;25.46;44.02;99832.94;5092142;28;20476;-83
2021/06/16 08:50:20;;;;;;;3.15;1.65;;;;;;;25.53;44.26;99824.97;5084360;28;20059;-85
2021/06/16 08:52:47;;;;;;;5.57;1.88;;;;;;;25.65;44.78;99830.78;5076669;28;20044;-85
2021/06/16 08:55:19;;;;;;;6.07;1.75;;;;;;;25.74;44.02;99823.44;5090186;28;20048;-85
2021/06/16 08:57:48;;;;;;;4.00;1.40;;;;;;;25.87;44.43;99825.47;5085964;28;20051;-84
2021/06/16 09:00:18;;;;;;;2.97;1.58;;;;;;;25.96;43.82;99818.13;5087909;28;20510;-85
2021/06/16 09:02:45;;;;;;;4.68;1.60;;;;;;;26.06;43.57;99824.06;5071488;28;20048;-88
2021/06/16 09:05:14;;;;;;;5.60;2.03;;;;;;;26.18;43.00;99823.56;5087692;28;20052;-85
2021/06/16 09:07:44;;;;;;;4.88;1.65;;;;;;;26.24;42.91;99820.97;5090791;28;20052;-85
2021/06/16 09:10:11;;;;;;;4.90;1.88;;;;;;;26.33;42.90;99827.13;5094580;28;20054;-85
2021/06/16 09:12:46;;;;;;;5.07;1.52;;;;;;;26.39;42.55;99826.34;5075084;28;20057;-85
2021/06/16 09:15:15;;;;;;;9.15;1.88;;;;;;;26.49;42.24;99827.91;5074839;28;20052;-85
2021/06/16 09:18:00;;;;;;;3.35;1.63;;;;;;;26.54;42.67;99822.78;5090440;28;20047;-84
2021/06/16 09:20:28;;;;;;;6.00;1.83;;;;;;;26.65;42.38;99824.97;5092889;28;20492;-85
2021/06/16 09:23:19;;;;;;;3.80;1.70;;;;;;;26.70;42.35;99824.41;5075136;28;20056;-85
2021/06/16 09:26:05;;;;;;;5.88;1.52;;;;;;;26.79;42.30;99831.34;5074515;28;20055;-85
2021/06/16 09:28:39;;;;;;;7.78;1.98;;;;;;;26.89;41.22;99825.63;5087393;28;20492;-85
2021/06/16 09:31:09;;;;;;;2.92;1.50;;;;;;;26.98;41.93;99822.81;5094921;28;20048;-85
2021/06/16 09:33:36;;;;;;;3.95;1.60;;;;;;;27.04;41.36;99813.94;5075639;28;20066;-85
2021/06/16 09:36:27;;;;;;;7.03;1.52;;;;;;;27.09;41.06;99819.56;5073659;28;20041;-85
2021/06/16 09:38:54;;;;;;;2.65;1.58;;;;;;;27.19;40.79;99814.69;5087999;28;20048;-85
2021/06/16 09:41:23;;;;;;;3.72;1.58;;;;;;;27.26;40.86;99813.91;5094103;28;20086;-85
2021/06/16 09:43:56;;;;;;;4.18;1.65;;;;;;;27.33;41.41;99814.78;5094149;28;20494;-85
2021/06/16 09:46:26;;;;;;;2.80;1.23;;;;;;;27.38;40.72;99809.63;5032500;28;20099;-85
2021/06/16 09:48:54;;;;;;;3.22;1.58;;;;;;;27.45;40.68;99807.81;5019330;28;20061;-85
2021/06/16 09:51:34;;;;;;;3.67;1.67;;;;;;;27.50;39.51;99814.50;5013575;28;20141;-85
2021/06/16 09:57:03;;;;;;;4.55;1.90;;;;;;;27.66;41.00;99808.78;5015373;28;20042;-85
2021/06/16 09:59:38;;;;;;;4.90;1.85;;;;;;;27.76;40.05;99804.88;5014169;28;20053;-85
2021/06/16 10:02:14;;;;;;;7.20;1.63;;;;;;;27.83;40.11;99793.06;5032370;28;20059;-85
2021/06/16 10:04:46;;;;;;;6.03;1.92;;;;;;;27.96;41.67;99795.00;5066596;28;20484;-84
2021/06/16 10:07:25;;;;;;;4.47;1.75;;;;;;;28.03;40.12;99789.59;5093412;28;20052;-84
2021/06/16 10:09:53;;;;;;;11.05;1.83;;;;;;;28.16;39.89;99788.84;5073520;28;20478;-85
2021/06/16 10:12:22;;;;;;;5.18;1.80;;;;;;;28.24;39.87;99787.81;5073345;28;20056;-83
2021/06/16 10:14:50;;;;;;;8.82;1.80;;;;;;;28.31;39.44;99786.00;5073012;28;20055;-83
2021/06/16 10:17:17;;;;;;;4.05;1.95;;;;;;;28.40;40.23;99785.81;5073051;28;20059;-83
2021/06/16 10:19:46;;;;;;;4.95;1.60;;;;;;;28.47;39.63;99781.22;5072722;28;20056;-83
2021/06/16 10:22:14;;;;;;;4.07;1.80;;;;;;;28.57;39.88;99783.53;5073171;28;20519;-83
2021/06/16 10:24:41;;;;;;;4.65;2.20;;;;;;;28.66;40.05;99776.88;5072852;28;20200;-83
2021/06/16 10:27:14;;;;;;;3.03;1.80;;;;;;;28.75;39.79;99775.63;5085266;28;20058;-83
2021/06/16 10:29:47;;;;;;;;;;;;;;;28.84;40.67;99776.28;5093944;28;20058;-83
2021/06/16 10:32:14;;;;;;;;;;;;;;;28.98;40.61;99774.44;5093403;28;19926;-83
2021/06/16 10:34:52;;;;;;;3.38;1.50;;;;;;;29.12;39.42;99779.84;5092952;28;19931;-83
2021/06/16 10:37:40;;;;;;;5.90;1.80;;;;;;;29.18;39.13;99780.84;5080039;28;20054;-83
2021/06/16 10:40:12;;;;;;;2.92;1.83;;;;;;;29.30;40.00;99778.34;5072714;28;20059;-83
2021/06/16 10:43:05;;;;;;;;;;;;;;;29.44;41.09;99780.00;5073131;28;20062;-83
2021/06/16 10:45:41;;;;;;;10.00;2.13;;;;;;;29.74;39.07;99762.41;5072404;28;19921;-83
2021/06/16 10:48:10;;;;;;;4.70;2.08;;;;;;;30.03;39.31;99765.63;5092183;28;20044;-83
2021/06/16 10:50:50;;;;;;;5.20;1.65;;;;;;;30.36;39.30;99764.66;5092938;28;20051;-83
2021/06/16 10:53:20;;;;;;;3.47;1.70;;;;;;;30.77;38.44;99758.94;5092351;28;20063;-83
2021/06/16 10:55:54;;;;;;;3.55;1.77;;;;;;;31.19;38.48;99755.63;5092916;28;20467;-83
2021/06/16 10:58:30;;;;;;;1.92;1.50;;;;;;;31.61;37.81;99756.91;5092544;28;20171;-83
2021/06/16 11:01:12;;;;;;;2.40;1.52;;;;;;;32.03;37.04;99751.56;5093749;28;20059;-83
2021/06/16 11:03:52;;;;;;;5.10;1.77;;;;;;;32.46;36.18;99752.47;5090501;28;20087;-83
2021/06/16 11:06:37;;;;;;;2.53;1.60;;;;;;;32.89;37.09;99745.03;5092690;28;20557;-83
2021/06/16 11:09:05;;;;;;;8.18;2.70;;;;;;;33.32;36.24;99750.41;5092260;28;20050;-83
2021/06/16 11:11:50;;;;;;;3.30;1.45;;;;;;;33.69;35.67;99745.72;5092377;28;20052;-84
2021/06/16 11:14:32;;;;;;;4.53;1.88;;;;;;;34.07;35.12;99730.59;5083529;28;20061;-83
2021/06/16 11:17:01;;;;;;;3.70;2.28;;;;;;;34.47;34.11;99726.16;5072244;28;20456;-84
2021/06/16 11:19:47;;;;;;;6.03;2.13;;;;;;;34.76;33.42;99733.47;5071893;28;20059;-84
2021/06/16 11:22:14;;;;;;;4.15;1.95;;;;;;;35.05;33.65;99727.88;5072012;28;20053;-83
2021/06/16 11:25:00;;;;;;;4.95;1.95;;;;;;;35.20;33.74;99736.31;5071614;28;20067;-84
2021/06/16 11:27:56;;;;;;;3.85;2.00;;;;;;;35.39;33.04;99721.50;5072428;28;20165;-83
2021/06/16 11:30:55;;;;;;;3.17;1.77;;;;;;;35.61;32.66;99730.53;5071046;28;20059;-84
2021/06/16 11:33:26;;;;;;;3.90;1.95;;;;;;;35.88;32.22;99728.13;5072097;28;20070;-84
2021/06/16 11:35:59;;;;;;;4.05;1.98;;;;;;;36.05;31.69;99723.38;5071884;28;20594;-84
2021/06/16 11:38:38;;;;;;;4.03;2.10;;;;;;;36.24;32.45;99718.38;5071558;28;20048;-84
2021/06/16 11:41:12;;;;;;;2.85;2.00;;;;;;;36.48;32.23;99709.78;5071660;28;20055;-84
2021/06/16 11:43:48;;;;;;;4.78;2.20;;;;;;;36.67;31.08;99711.31;5030990;28;20461;-86
2021/06/16 11:46:25;;;;;;;3.10;2.00;;;;;;;36.92;31.07;99702.41;5014645;28;20061;-86
2021/06/16 11:49:28;;;;;;;5.90;2.58;;;;;;;37.14;31.48;99707.78;5014489;28;20064;-86
2021/06/16 11:52:03;;;;;;;4.00;2.30;;;;;;;37.44;30.27;99702.69;5014465;28;20053;-86
2021/06/16 11:54:34;;;;;;;3.88;1.85;;;;;;;37.67;30.72;99700.63;5014216;28;20049;-86
2021/06/16 11:57:14;;;;;;;3.47;1.70;;;;;;;37.84;29.75;99699.53;5014513;28;20045;-86